Terminal Aerodrome Forecast
Issued by NWS

Home | Current Version | Previous Version | Text Only | Print | Product List | Glossary On
Versions: 1 2 3 4 5 6 7 8 9 10 11 12 13 14 15 16 17 18 19 20 21 22 23 24 25 26 27 28
000
FTUS45 KCYS 210520
TAFAIA
TAF
KAIA 210520Z 2106/2206 22007KT P6SM BKN120
     FM211000 25009KT P6SM SKC
     FM211800 25013G19KT P6SM SCT100
     FM212300 27011KT P6SM OVC050=

USA.gov is the U.S. government's official web portal to all federal, state and local government web resources and services.